Preview of NWS' New Version of Forecast
This preview is not operational and should not be used for support decisions.

Terminal Aerodrome Forecast (TAF)

Issued by National Weather Service (NWS)

                            
000
FTUS42 KCAE 220520
TAFOGB
TAF
KOGB 220520Z 2206/2306 VRB03KT P6SM SCT250
     FM221400 25006KT P6SM SKC
     FM222100 24008KT P6SM VCTS BKN050CB
     FM230000 21005KT P6SM SCT250=